Terminal Aerodrome Forecast
Issued by NWS Hastings, NE

Home | Current Version | Previous Version | Text Only | Print | Product List | Glossary On
Versions: 1 2 3 4 5 6 7 8 9 10 11 12 13 14 15 16 17 18 19 20 21 22 23 24 25 26 27 28 29 30 31 32 33 34 35 36 37 38 39
610
FTUS43 KGID 291731
TAFGRI
TAF
KGRI 291731Z 2918/3018 05012KT P6SM OVC015
     FM292100 06014KT P6SM -RA OVC015
     FM292300 05015G23KT 5SM -RA OVC008
     FM300100 05015G23KT 5SM -RA OVC003
     FM301200 05014G22KT 3SM -RADZ OVC003=

USA.gov is the U.S. government's official web portal to all federal, state and local government web resources and services.